createdAt,value
2018-08-06T00:00:15.215Z,52.69
2018-08-06T00:00:55.792Z,52.47
2018-08-06T00:01:36.359Z,52.59
2018-08-06T00:02:16.935Z,52.5
2018-08-06T00:02:57.573Z,52.59
2018-08-06T00:03:38.131Z,52.47
2018-08-06T00:04:18.724Z,52.5
2018-08-06T00:04:59.248Z,52.98
2018-08-06T00:05:39.841Z,52.79
2018-08-06T00:06:20.415Z,52.86
2018-08-06T00:07:00.989Z,52.89
2018-08-06T00:07:41.597Z,52.79
2018-08-06T00:08:22.144Z,52.89
2018-08-06T00:09:02.718Z,52.98
2018-08-06T00:09:43.288Z,52.89
2018-08-06T00:10:23.860Z,52.79
2018-08-06T00:11:04.436Z,52.89
2018-08-06T00:11:44.978Z,52.89
2018-08-06T00:12:25.550Z,52.89
2018-08-06T00:13:06.108Z,52.69
2018-08-06T00:13:46.664Z,52.79
2018-08-06T00:14:27.235Z,52.79
2018-08-06T00:15:07.876Z,52.59
2018-08-06T00:15:48.399Z,52.5
2018-08-06T00:16:28.963Z,52.57
2018-08-06T00:17:09.566Z,52.89
2018-08-06T00:17:50.143Z,52.79
2018-08-06T00:18:30.703Z,52.31
2018-08-06T00:19:11.279Z,52.31
2018-08-06T00:19:51.849Z,52.5
2018-08-06T00:20:32.521Z,52.5
2018-08-06T00:21:13.005Z,52.59
2018-08-06T00:21:53.559Z,52.98
2018-08-06T00:22:34.099Z,52.79
2018-08-06T00:23:14.671Z,52.47
2018-08-06T00:23:55.241Z,52.4
2018-08-06T00:24:35.808Z,52.59
2018-08-06T00:25:16.403Z,52.5
2018-08-06T00:25:56.961Z,52.79
2018-08-06T00:26:37.530Z,52.4
2018-08-06T00:27:18.105Z,52.47
2018-08-06T00:27:58.680Z,52.5
2018-08-06T00:28:39.254Z,52.76
2018-08-06T00:29:19.809Z,52.86
2018-08-06T00:30:00.370Z,53.44
2018-08-06T00:30:40.952Z,52.76
2018-08-06T00:31:21.508Z,53.15
2018-08-06T00:32:02.073Z,52.95
2018-08-06T00:32:42.643Z,52.95
2018-08-06T00:33:23.209Z,52.76
2018-08-06T00:34:03.888Z,52.37
2018-08-06T00:34:44.458Z,52.59
2018-08-06T00:35:25.034Z,52.47
2018-08-06T00:36:05.602Z,52.5
2018-08-06T00:36:46.166Z,52.5
2018-08-06T00:37:26.734Z,52.4
2018-08-06T00:38:07.298Z,52.59
2018-08-06T00:38:47.868Z,52.69
2018-08-06T00:39:28.496Z,52.21
2018-08-06T00:40:09.067Z,52.28
2018-08-06T00:40:49.634Z,52.4
2018-08-06T00:41:30.207Z,51.53
2018-08-06T00:42:10.778Z,51.63
2018-08-06T00:42:51.347Z,51.92
2018-08-06T00:43:31.916Z,51.82
2018-08-06T00:44:12.492Z,51.63
2018-08-06T00:44:53.064Z,51.63
2018-08-06T00:45:33.707Z,51.73
2018-08-06T00:46:14.184Z,51.25
2018-08-06T00:46:54.751Z,51.63
2018-08-06T00:47:35.307Z,51.82
2018-08-06T00:48:15.873Z,51.63
2018-08-06T00:48:56.451Z,51.05
2018-08-06T00:49:37.016Z,51.05
2018-08-06T00:50:17.587Z,51.25
2018-08-06T00:50:58.143Z,51.73
2018-08-06T00:51:38.714Z,51.63
2018-08-06T00:52:19.344Z,51.73
2018-08-06T00:52:59.886Z,51.82
2018-08-06T00:53:40.450Z,51.73
2018-08-06T00:54:21.065Z,51.63
2018-08-06T00:55:01.655Z,51.53
2018-08-06T00:55:42.221Z,51.63
2018-08-06T00:56:22.789Z,51.63
2018-08-06T00:57:03.356Z,51.63
2018-08-06T00:57:43.930Z,51.53
2018-08-06T00:58:24.578Z,51.44
2018-08-06T00:59:05.152Z,50.86
2018-08-06T00:59:45.724Z,51.44
2018-08-06T01:00:26.295Z,51.05
2018-08-06T01:01:06.863Z,51.34
2018-08-06T01:01:47.478Z,51.34
2018-08-06T01:02:28.069Z,50.96
2018-08-06T01:03:08.767Z,50.86
2018-08-06T01:03:49.295Z,50.57
2018-08-06T01:04:29.865Z,50.76
2018-08-06T01:05:10.423Z,51.15
2018-08-06T01:05:50.967Z,50.67
2018-08-06T01:06:31.555Z,50.76
2018-08-06T01:07:12.117Z,50.57
2018-08-06T01:07:52.690Z,50.64
2018-08-06T01:08:33.401Z,51.7
2018-08-06T01:09:13.868Z,52.47
2018-08-06T01:09:54.424Z,52.21
2018-08-06T01:10:34.999Z,52.21
2018-08-06T01:11:15.551Z,51.92
2018-08-06T01:11:56.121Z,51.92
2018-08-06T01:12:36.705Z,51.8
2018-08-06T01:13:17.264Z,52.59
2018-08-06T01:13:57.827Z,52.47
2018-08-06T01:14:38.443Z,52.69
2018-08-06T01:15:19.017Z,52.11
2018-08-06T01:15:59.586Z,52.31
2018-08-06T01:16:40.156Z,52.21
2018-08-06T01:17:20.709Z,52.59
2018-08-06T01:18:01.273Z,52.21
2018-08-06T01:18:41.847Z,52.31
2018-08-06T01:19:22.420Z,51.82
2018-08-06T01:20:03.018Z,51.63
2018-08-06T01:20:43.588Z,52.31
2018-08-06T01:21:24.161Z,52.59
2018-08-06T01:22:04.736Z,52.59
2018-08-06T01:22:45.311Z,52.5
2018-08-06T01:23:25.862Z,52.21
2018-08-06T01:24:06.437Z,52.69
2018-08-06T01:24:47.004Z,52.5
2018-08-06T01:25:27.575Z,52.31
2018-08-06T01:26:08.139Z,52.01
2018-08-06T01:26:48.733Z,52.4
2018-08-06T01:27:29.279Z,51.53
2018-08-06T01:28:09.850Z,51.73
2018-08-06T01:28:50.423Z,52.4
2018-08-06T01:29:30.987Z,52.21
2018-08-06T01:30:11.747Z,52.31
2018-08-06T01:30:52.315Z,52.31
2018-08-06T01:31:32.897Z,52.4
2018-08-06T01:32:13.483Z,52.4
2018-08-06T01:32:54.055Z,52.31
2018-08-06T01:33:34.629Z,52.31
2018-08-06T01:34:15.203Z,51.92
2018-08-06T01:34:55.940Z,52.4
2018-08-06T01:35:36.921Z,52.4
2018-08-06T01:36:17.487Z,52.79
2018-08-06T01:36:58.051Z,52.59
2018-08-06T01:37:38.636Z,52.95
2018-08-06T01:38:19.197Z,53.25
2018-08-06T01:38:59.768Z,53.37
2018-08-06T01:39:40.336Z,53.34
2018-08-06T01:40:20.920Z,53.27
2018-08-06T01:41:01.479Z,52.76
2018-08-06T01:41:42.041Z,52.79
2018-08-06T01:42:22.607Z,52.79
2018-08-06T01:43:03.181Z,52.37
2018-08-06T01:43:43.758Z,52.57
2018-08-06T01:44:24.312Z,52.5
2018-08-06T01:45:04.869Z,52.67
2018-08-06T01:45:45.510Z,53.15
2018-08-06T01:46:26.059Z,52.67
2018-08-06T01:47:06.624Z,53.25
2018-08-06T01:47:47.191Z,53.05
2018-08-06T01:48:27.765Z,53.05
2018-08-06T01:49:08.340Z,53.25
2018-08-06T01:49:48.930Z,53.15
2018-08-06T01:50:29.500Z,53.15
2018-08-06T01:51:10.078Z,53.05
2018-08-06T01:51:50.656Z,52.57
2018-08-06T01:52:31.230Z,53.34
2018-08-06T01:53:11.791Z,53.44
2018-08-06T01:53:52.378Z,53.25
2018-08-06T01:54:32.954Z,53.34
2018-08-06T01:55:13.519Z,53.15
2018-08-06T01:55:54.094Z,53.83
2018-08-06T01:56:34.699Z,53.51
2018-08-06T01:57:15.269Z,54.11
2018-08-06T01:57:55.838Z,54.09
2018-08-06T01:58:36.400Z,53.8
2018-08-06T01:59:16.987Z,53.7
2018-08-06T01:59:57.558Z,53.7
2018-08-06T02:00:38.132Z,54.66
2018-08-06T02:01:18.695Z,54.57
2018-08-06T02:01:59.276Z,54.66
2018-08-06T02:02:39.843Z,54.66
2018-08-06T02:03:20.407Z,54.66
2018-08-06T02:04:00.980Z,54.66
2018-08-06T02:04:41.532Z,54.57
2018-08-06T02:05:22.231Z,54.28
2018-08-06T02:06:02.796Z,54.57
2018-08-06T02:06:43.373Z,54.57
2018-08-06T02:07:23.949Z,54.96
2018-08-06T02:08:04.517Z,54.38
2018-08-06T02:08:45.090Z,54.66
2018-08-06T02:09:25.659Z,54.57
2018-08-06T02:10:06.230Z,54.96
2018-08-06T02:10:46.790Z,54.86
2018-08-06T02:11:27.514Z,54.74
2018-08-06T02:12:08.099Z,55.05
2018-08-06T02:12:48.722Z,55.51
2018-08-06T02:13:29.298Z,55.7
2018-08-06T02:14:09.870Z,55.34
2018-08-06T02:14:50.438Z,55.54
2018-08-06T02:15:30.991Z,55.82
2018-08-06T02:16:11.562Z,55.34
2018-08-06T02:16:52.199Z,55.05
2018-08-06T02:17:32.837Z,55.15
2018-08-06T02:18:13.412Z,55.02
2018-08-06T02:18:53.995Z,55.05
2018-08-06T02:19:34.561Z,55.7
2018-08-06T02:20:15.137Z,55.6
2018-08-06T02:20:55.717Z,55.51
2018-08-06T02:21:36.278Z,55.51
2018-08-06T02:22:16.846Z,55.6
2018-08-06T02:22:57.398Z,55.51
2018-08-06T02:23:37.965Z,55.99
2018-08-06T02:24:18.548Z,56.09
2018-08-06T02:24:59.128Z,55.51
2018-08-06T02:25:39.679Z,55.89
2018-08-06T02:26:20.313Z,55.99
2018-08-06T02:27:00.860Z,55.99
2018-08-06T02:27:41.468Z,56.09
2018-08-06T02:28:22.076Z,56.11
2018-08-06T02:29:02.626Z,56.01
2018-08-06T02:29:43.195Z,55.41
2018-08-06T02:30:23.747Z,55.7
2018-08-06T02:31:04.340Z,56.18
2018-08-06T02:31:44.921Z,56.18
2018-08-06T02:32:25.499Z,56.21
2018-08-06T02:33:06.057Z,56.4
2018-08-06T02:33:46.648Z,56.49
2018-08-06T02:34:27.195Z,56.3
2018-08-06T02:35:07.766Z,56.11
2018-08-06T02:35:48.335Z,55.63
2018-08-06T02:36:28.896Z,55.41
2018-08-06T02:37:09.455Z,55.54
2018-08-06T02:37:50.037Z,55.89
2018-08-06T02:38:30.606Z,55.54
2018-08-06T02:39:11.180Z,55.44
2018-08-06T02:39:51.744Z,55.6
2018-08-06T02:40:32.314Z,55.41
2018-08-06T02:41:12.875Z,55.54
2018-08-06T02:41:53.464Z,55.89
2018-08-06T02:42:34.059Z,55.51
2018-08-06T02:43:14.688Z,55.6
2018-08-06T02:43:55.404Z,55.51
2018-08-06T02:44:35.963Z,55.89
2018-08-06T02:45:16.541Z,56.37
2018-08-06T02:45:57.103Z,56.27
2018-08-06T02:46:37.665Z,56.57
2018-08-06T02:47:18.246Z,56.47
2018-08-06T02:47:58.820Z,56.18
2018-08-06T02:48:39.400Z,56.37
2018-08-06T02:49:19.962Z,56.47
2018-08-06T02:50:00.505Z,56.18
2018-08-06T02:50:41.080Z,56.37
2018-08-06T02:51:21.664Z,56.09
2018-08-06T02:52:02.455Z,56.76
2018-08-06T02:52:43.013Z,56.76
2018-08-06T02:53:23.586Z,56.95
2018-08-06T02:54:04.168Z,56.76
2018-08-06T02:54:44.728Z,56.57
2018-08-06T02:55:25.294Z,56.85
2018-08-06T02:56:05.870Z,56.57
2018-08-06T02:56:46.462Z,56.47
2018-08-06T02:57:27.046Z,56.66
2018-08-06T02:58:07.632Z,56.66
2018-08-06T02:58:48.230Z,56.47
2018-08-06T02:59:28.798Z,56.95
2018-08-06T03:00:09.412Z,56.47
2018-08-06T03:00:49.917Z,56.76
2018-08-06T03:01:30.472Z,56.76
2018-08-06T03:02:11.046Z,56.47
2018-08-06T03:02:51.609Z,56.66
2018-08-06T03:03:32.188Z,57.24
2018-08-06T03:04:12.768Z,57.14
2018-08-06T03:04:53.340Z,56.85
2018-08-06T03:05:33.910Z,56.95
2018-08-06T03:06:14.462Z,56.76
2018-08-06T03:06:55.186Z,56.47
2018-08-06T03:07:35.743Z,57.24
2018-08-06T03:08:17.203Z,56.85
2018-08-06T03:08:57.760Z,56.85
2018-08-06T03:09:38.382Z,57.34
2018-08-06T03:10:18.934Z,57.43
2018-08-06T03:10:59.493Z,57.24
2018-08-06T03:11:40.060Z,57.43
2018-08-06T03:12:20.623Z,57.72
2018-08-06T03:13:01.322Z,57.62
2018-08-06T03:13:41.880Z,57.34
2018-08-06T03:14:22.474Z,57.24
2018-08-06T03:15:03.032Z,57.62
2018-08-06T03:15:43.596Z,57.62
2018-08-06T03:16:24.152Z,57.24
2018-08-06T03:17:04.770Z,57.34
2018-08-06T03:17:45.290Z,57.72
2018-08-06T03:18:25.849Z,57.34
2018-08-06T03:19:06.437Z,57.72
2018-08-06T03:19:47.016Z,57.43
2018-08-06T03:20:27.672Z,57.14
2018-08-06T03:21:08.381Z,57.72
2018-08-06T03:21:48.942Z,57.72
2018-08-06T03:22:29.510Z,57.34
2018-08-06T03:23:10.070Z,57.34
2018-08-06T03:23:50.633Z,56.37
2018-08-06T03:24:31.272Z,57.14
2018-08-06T03:25:11.819Z,57.14
2018-08-06T03:25:52.375Z,57.53
2018-08-06T03:26:32.958Z,57.43
2018-08-06T03:27:13.592Z,57.34
2018-08-06T03:27:54.165Z,57.62
2018-08-06T03:28:34.753Z,57.72
2018-08-06T03:29:15.306Z,57.53
2018-08-06T03:29:55.868Z,57.62
2018-08-06T03:30:36.422Z,57.43
2018-08-06T03:31:16.974Z,57.62
2018-08-06T03:31:57.702Z,57.14
2018-08-06T03:32:38.248Z,57.05
2018-08-06T03:33:18.880Z,57.24
2018-08-06T03:33:59.436Z,57.24
2018-08-06T03:34:39.998Z,57.53
2018-08-06T03:35:20.567Z,57.43
2018-08-06T03:36:01.359Z,57.43
2018-08-06T03:36:42.253Z,57.53
2018-08-06T03:37:22.800Z,57.62
2018-08-06T03:38:03.377Z,58.01
2018-08-06T03:38:43.960Z,58.11
2018-08-06T03:39:24.531Z,58.01
2018-08-06T03:40:05.134Z,57.72
2018-08-06T03:40:45.668Z,57.72
2018-08-06T03:41:26.233Z,57.72
2018-08-06T03:42:06.799Z,58.3
2018-08-06T03:42:47.365Z,58.11
2018-08-06T03:43:27.911Z,58.2
2018-08-06T03:44:08.512Z,58.2
2018-08-06T03:44:49.116Z,57.72
2018-08-06T03:45:29.690Z,57.92
2018-08-06T03:46:10.270Z,58.11
2018-08-06T03:46:50.880Z,58.2
2018-08-06T03:47:31.457Z,58.49
2018-08-06T03:48:12.016Z,58.4
2018-08-06T03:48:52.589Z,58.4
2018-08-06T03:49:33.160Z,58.4
2018-08-06T03:50:13.708Z,58.4
2018-08-06T03:50:54.283Z,58.2
2018-08-06T03:51:34.877Z,58.11
2018-08-06T03:52:15.451Z,58.11
2018-08-06T03:52:56.013Z,58.4
2018-08-06T03:53:36.569Z,58.3
2018-08-06T03:54:17.135Z,58.4
2018-08-06T03:54:57.712Z,58.49
2018-08-06T03:55:38.278Z,58.11
2018-08-06T03:56:18.851Z,58.49
2018-08-06T03:56:59.408Z,58.69
2018-08-06T03:57:39.972Z,58.4
2018-08-06T03:58:20.569Z,58.3
2018-08-06T03:59:01.138Z,58.11
2018-08-06T03:59:41.689Z,58.01
2018-08-06T04:00:22.249Z,58.2
2018-08-06T04:01:02.831Z,58.2
2018-08-06T04:01:43.419Z,58.4
2018-08-06T04:02:23.979Z,58.69
2018-08-06T04:03:04.819Z,58.59
2018-08-06T04:03:45.125Z,58.4
2018-08-06T04:04:25.693Z,58.49
2018-08-06T04:05:06.279Z,58.78
2018-08-06T04:05:46.803Z,58.78
2018-08-06T04:06:27.404Z,58.2
2018-08-06T04:07:07.976Z,58.88
2018-08-06T04:07:48.566Z,58.97
2018-08-06T04:08:29.137Z,58.59
2018-08-06T04:09:09.721Z,58.78
2018-08-06T04:09:50.284Z,58.69
2018-08-06T04:10:30.856Z,58.69
2018-08-06T04:11:11.417Z,58.69
2018-08-06T04:11:52.032Z,58.59
2018-08-06T04:12:32.561Z,58.88
2018-08-06T04:13:13.127Z,58.42
2018-08-06T04:13:53.691Z,58.78
2018-08-06T04:14:34.251Z,58.52
2018-08-06T04:15:14.825Z,58.23
2018-08-06T04:15:55.469Z,58.23
2018-08-06T04:16:36.087Z,58.33
2018-08-06T04:17:16.653Z,58.81
2018-08-06T04:17:57.232Z,58.69
2018-08-06T04:18:37.787Z,58.52
2018-08-06T04:19:18.357Z,57.75
2018-08-06T04:19:58.910Z,58.14
2018-08-06T04:20:39.462Z,58.04
2018-08-06T04:21:20.047Z,57.94
2018-08-06T04:22:00.616Z,57.94
2018-08-06T04:22:41.199Z,57.75
2018-08-06T04:23:21.823Z,57.75
2018-08-06T04:24:02.421Z,58.33
2018-08-06T04:24:43.188Z,58.04
2018-08-06T04:25:23.779Z,57.75
2018-08-06T04:26:04.353Z,58.23
2018-08-06T04:26:44.910Z,58.52
2018-08-06T04:27:25.487Z,58.62
2018-08-06T04:28:06.051Z,58.4
2018-08-06T04:28:46.597Z,58.69
2018-08-06T04:29:27.255Z,58.78
2018-08-06T04:30:07.728Z,58.49
2018-08-06T04:30:48.286Z,58.88
2018-08-06T04:31:28.903Z,58.88
2018-08-06T04:32:09.464Z,59.07
2018-08-06T04:32:50.081Z,59.17
2018-08-06T04:33:30.787Z,58.97
2018-08-06T04:34:11.328Z,59.17
2018-08-06T04:34:51.927Z,59.17
2018-08-06T04:35:32.490Z,59.17
2018-08-06T04:36:13.106Z,59.55
2018-08-06T04:36:53.640Z,59.1
2018-08-06T04:37:34.203Z,59.36
2018-08-06T04:38:14.768Z,58.78
2018-08-06T04:38:55.305Z,58.72
2018-08-06T04:39:35.882Z,58.88
2018-08-06T04:40:16.455Z,58.52
2018-08-06T04:40:57.019Z,58.59
2018-08-06T04:41:37.572Z,58.72
2018-08-06T04:42:18.123Z,58.81
2018-08-06T04:42:58.730Z,58.69
2018-08-06T04:43:39.414Z,58.62
2018-08-06T04:44:20.018Z,58.52
2018-08-06T04:45:00.592Z,58.52
2018-08-06T04:45:41.232Z,58.91
2018-08-06T04:46:21.780Z,59
2018-08-06T04:47:02.351Z,58.91
2018-08-06T04:47:42.897Z,59.48
2018-08-06T04:48:23.456Z,59.65
2018-08-06T04:49:04.040Z,59.39
2018-08-06T04:49:44.606Z,58.69
2018-08-06T04:50:25.185Z,58.97
2018-08-06T04:51:05.753Z,59.27
2018-08-06T04:51:46.339Z,59.1
2018-08-06T04:52:26.938Z,59.1
2018-08-06T04:53:07.690Z,59.07
2018-08-06T04:53:48.260Z,59.3
2018-08-06T04:54:28.817Z,59.65
2018-08-06T04:55:09.424Z,59.87
2018-08-06T04:55:49.999Z,60.13
2018-08-06T04:56:30.568Z,60.03
2018-08-06T04:57:11.134Z,59.65
2018-08-06T04:57:51.701Z,60.32
2018-08-06T04:58:32.258Z,59.84
2018-08-06T04:59:12.838Z,59.94
2018-08-06T04:59:53.407Z,59.65
2018-08-06T05:00:33.957Z,59.36
2018-08-06T05:01:14.550Z,59.87
2018-08-06T05:01:55.140Z,59.84
2018-08-06T05:02:35.763Z,59.48
2018-08-06T05:03:16.323Z,59.58
2018-08-06T05:03:56.893Z,59.97
2018-08-06T05:04:37.460Z,60.06
2018-08-06T05:05:18.028Z,59.97
2018-08-06T05:05:58.593Z,60.03
2018-08-06T05:06:39.196Z,59.87
2018-08-06T05:07:19.766Z,59.78
2018-08-06T05:08:00.336Z,59.65
2018-08-06T05:08:40.963Z,59.68
2018-08-06T05:09:21.513Z,60.16
2018-08-06T05:10:02.090Z,60.26
2018-08-06T05:10:42.660Z,59.58
2018-08-06T05:11:23.226Z,59.87
2018-08-06T05:12:03.783Z,59.68
2018-08-06T05:12:44.392Z,60.16
2018-08-06T05:13:24.996Z,59.97
2018-08-06T05:14:05.552Z,60.35
2018-08-06T05:14:46.121Z,59.87
2018-08-06T05:15:26.686Z,60.55
2018-08-06T05:16:07.257Z,60.74
2018-08-06T05:16:47.828Z,60.74
2018-08-06T05:17:28.389Z,60.35
2018-08-06T05:18:08.962Z,60.74
2018-08-06T05:18:49.520Z,61.03
2018-08-06T05:19:30.163Z,61.13
2018-08-06T05:20:10.649Z,60.64
2018-08-06T05:20:51.222Z,60.64
2018-08-06T05:21:31.785Z,60.64
2018-08-06T05:22:12.373Z,60.83
2018-08-06T05:22:53.015Z,60.55
2018-08-06T05:23:33.578Z,60.35
2018-08-06T05:24:14.285Z,60.06
2018-08-06T05:24:54.724Z,60.45
2018-08-06T05:25:35.298Z,60.45
2018-08-06T05:26:15.866Z,60.64
2018-08-06T05:26:56.439Z,60.74
2018-08-06T05:27:37.004Z,60.45
2018-08-06T05:28:17.571Z,60.64
2018-08-06T05:28:58.140Z,61.03
2018-08-06T05:29:38.693Z,60.93
2018-08-06T05:30:19.260Z,61.32
2018-08-06T05:30:59.803Z,61.03
2018-08-06T05:31:40.377Z,60.45
2018-08-06T05:32:20.947Z,60.93
2018-08-06T05:33:01.517Z,61.13
2018-08-06T05:33:42.122Z,61.51
2018-08-06T05:34:22.730Z,61.51
2018-08-06T05:35:03.298Z,61.32
2018-08-06T05:35:43.865Z,61.22
2018-08-06T05:36:24.391Z,61.22
2018-08-06T05:37:05.036Z,61.03
2018-08-06T05:37:45.639Z,60.93
2018-08-06T05:38:26.273Z,61.22
2018-08-06T05:39:06.836Z,61.22
2018-08-06T05:39:47.474Z,60.93
2018-08-06T05:40:28.024Z,60.64
2018-08-06T05:41:08.940Z,60.93
2018-08-06T05:41:49.598Z,61.41
2018-08-06T05:42:30.182Z,62.86
2018-08-06T05:43:10.805Z,62.12
2018-08-06T05:43:51.416Z,62.31
2018-08-06T05:44:32.015Z,62.31
2018-08-06T05:45:12.587Z,61.93
2018-08-06T05:45:53.174Z,61.74
2018-08-06T05:46:33.824Z,61.35
2018-08-06T05:47:14.382Z,60.68
2018-08-06T05:47:54.939Z,60.48
2018-08-06T05:48:35.632Z,60.22
2018-08-06T05:49:16.293Z,60.13
2018-08-06T05:49:56.935Z,59.83
2018-08-06T05:50:37.555Z,59.64
2018-08-06T05:51:18.179Z,59.45
2018-08-06T05:51:58.749Z,58.7
2018-08-06T05:52:39.333Z,58.51
2018-08-06T05:53:19.921Z,58.9
2018-08-06T05:54:00.496Z,58.51
2018-08-06T05:54:41.044Z,58.83
2018-08-06T05:55:21.622Z,58.45
2018-08-06T05:56:02.187Z,57.77
2018-08-06T05:56:42.753Z,57.67
2018-08-06T05:57:23.309Z,56.8
2018-08-06T05:58:03.856Z,57.19
2018-08-06T05:58:44.415Z,57.38
2018-08-06T05:59:24.997Z,57.6
2018-08-06T06:00:05.577Z,56.83
2018-08-06T06:00:46.166Z,56.83
2018-08-06T06:01:26.711Z,56.05
2018-08-06T06:02:07.296Z,56.47
2018-08-06T06:02:47.873Z,57.05
2018-08-06T06:03:28.578Z,56.95
2018-08-06T06:04:09.148Z,55.6
2018-08-06T06:04:49.716Z,54.83
2018-08-06T06:05:30.300Z,54.73
2018-08-06T06:06:10.870Z,54.73
2018-08-06T06:06:51.447Z,55.73
2018-08-06T06:07:32.023Z,56.09
2018-08-06T06:08:12.586Z,55.63
2018-08-06T06:08:53.169Z,55.73
2018-08-06T06:09:33.746Z,55.82
2018-08-06T06:10:14.302Z,55.73
2018-08-06T06:10:54.924Z,55.73
2018-08-06T06:11:35.500Z,55.15
2018-08-06T06:12:16.066Z,55.07
2018-08-06T06:12:56.750Z,54.69
2018-08-06T06:13:37.532Z,55.07
2018-08-06T06:14:18.121Z,54.98
2018-08-06T06:14:58.688Z,54.59
2018-08-06T06:15:39.294Z,54.49
2018-08-06T06:16:19.832Z,55.27
2018-08-06T06:17:00.432Z,54.59
2018-08-06T06:17:41.006Z,54.81
2018-08-06T06:18:21.590Z,54.71
2018-08-06T06:19:02.230Z,53.65
2018-08-06T06:19:42.749Z,53.45
2018-08-06T06:20:23.318Z,53.75
2018-08-06T06:21:03.910Z,53.85
2018-08-06T06:21:44.491Z,53.26
2018-08-06T06:22:25.061Z,53
2018-08-06T06:23:05.805Z,53.09
2018-08-06T06:23:46.414Z,53.07
2018-08-06T06:24:26.997Z,53.07
2018-08-06T06:25:07.568Z,52.32
2018-08-06T06:25:48.175Z,52.03
2018-08-06T06:26:28.724Z,52.51
2018-08-06T06:27:09.303Z,53.09
2018-08-06T06:27:49.902Z,52.64
2018-08-06T06:28:30.519Z,50.99
2018-08-06T06:29:11.083Z,51.57
2018-08-06T06:29:51.673Z,51.86
2018-08-06T06:30:32.273Z,52.44
2018-08-06T06:31:12.861Z,52.15
2018-08-06T06:31:53.449Z,51.28
2018-08-06T06:32:34.053Z,51.11
2018-08-06T06:33:14.771Z,51.01
2018-08-06T06:33:55.353Z,50.43
2018-08-06T06:34:35.961Z,48.88
2018-08-06T06:35:16.471Z,48.49
2018-08-06T06:35:57.046Z,48.39
2018-08-06T06:36:37.636Z,48.69
2018-08-06T06:37:18.202Z,48.49
2018-08-06T06:37:58.773Z,48.49
2018-08-06T06:38:39.339Z,48.88
2018-08-06T06:39:19.907Z,48.78
2018-08-06T06:40:00.497Z,48.9
2018-08-06T06:40:41.064Z,49.39
2018-08-06T06:41:21.636Z,48.71
2018-08-06T06:42:02.309Z,48.71
2018-08-06T06:42:42.887Z,49.1
2018-08-06T06:43:23.443Z,49.39
2018-08-06T06:44:04.019Z,48.73
2018-08-06T06:44:44.602Z,48.8
2018-08-06T06:45:25.227Z,47.96
2018-08-06T06:46:05.816Z,47.08
2018-08-06T06:46:46.400Z,47.28
2018-08-06T06:47:26.991Z,47.64
2018-08-06T06:48:07.595Z,47.66
2018-08-06T06:48:48.231Z,48.52
2018-08-06T06:49:28.773Z,48.8
2018-08-06T06:50:09.414Z,48.15
2018-08-06T06:50:49.948Z,48.05
2018-08-06T06:51:30.526Z,47.96
2018-08-06T06:52:11.100Z,48.25
2018-08-06T06:52:51.814Z,47.18
2018-08-06T06:53:32.397Z,47.38
2018-08-06T06:54:12.984Z,47.08
2018-08-06T06:54:53.584Z,47.11
2018-08-06T06:55:34.353Z,47.2
2018-08-06T06:56:15.814Z,47.4
2018-08-06T06:56:56.416Z,47.49
2018-08-06T06:57:37.032Z,46.91
2018-08-06T06:58:17.572Z,46.42
2018-08-06T06:58:58.114Z,46.42
2018-08-06T06:59:38.687Z,47.13
2018-08-06T07:00:19.343Z,46.94
2018-08-06T07:00:59.921Z,47.42
2018-08-06T07:01:40.498Z,47.13
2018-08-06T07:02:21.593Z,47.13
2018-08-06T07:03:02.250Z,46.15
2018-08-06T07:03:42.834Z,46.55
2018-08-06T07:04:23.557Z,46.25
2018-08-06T07:05:04.187Z,45.48
2018-08-06T07:05:44.743Z,46.15
2018-08-06T07:06:25.440Z,46.35
2018-08-06T07:07:05.928Z,45.48
2018-08-06T07:07:46.484Z,45.57
2018-08-06T07:08:27.048Z,45.67
2018-08-06T07:09:07.631Z,45.89
2018-08-06T07:09:48.398Z,45.21
2018-08-06T07:10:29.065Z,44.53
2018-08-06T07:11:09.653Z,44.53
2018-08-06T07:11:50.444Z,44.53
2018-08-06T07:12:31.013Z,44.62
2018-08-06T07:13:11.583Z,44.33
2018-08-06T07:13:52.254Z,44.43
2018-08-06T07:14:33.070Z,44.26
2018-08-06T07:15:13.685Z,44.14
2018-08-06T07:15:54.372Z,43.48
2018-08-06T07:16:35.681Z,44.65
2018-08-06T07:17:15.900Z,44.35
2018-08-06T07:17:56.471Z,44.06
2018-08-06T07:18:37.063Z,43.67
2018-08-06T07:19:18.283Z,43.77
2018-08-06T07:19:58.838Z,42.8
2018-08-06T07:20:39.490Z,43.29
2018-08-06T07:21:20.065Z,42.9
2018-08-06T07:22:01.262Z,43.19
2018-08-06T07:22:41.866Z,42.8
2018-08-06T07:23:22.474Z,42.8
2018-08-06T07:24:03.037Z,42.7
2018-08-06T07:24:43.642Z,42.8
2018-08-06T07:25:24.265Z,42.8
2018-08-06T07:26:04.934Z,42.8
2018-08-06T07:26:45.651Z,43.09
2018-08-06T07:27:26.416Z,43.58
2018-08-06T07:28:07.013Z,43.77
2018-08-06T07:28:47.591Z,44.55
2018-08-06T07:29:28.174Z,44.45
2018-08-06T07:30:08.743Z,45.23
2018-08-06T07:30:49.319Z,45.62
2018-08-06T07:31:29.890Z,45.72
2018-08-06T07:32:10.486Z,42.5
2018-08-06T07:32:51.036Z,42.29
2018-08-06T07:33:31.595Z,41.61
2018-08-06T07:34:12.163Z,43.36
2018-08-06T07:34:52.764Z,43.95
2018-08-06T07:35:33.380Z,43.95
2018-08-06T07:36:13.928Z,44.74
2018-08-06T07:36:54.492Z,44.24
2018-08-06T07:37:35.064Z,44.16
2018-08-06T07:38:15.752Z,43.96
2018-08-06T07:38:56.336Z,44.06
2018-08-06T07:39:36.914Z,44.45
2018-08-06T07:40:17.496Z,43.87
2018-08-06T07:40:58.065Z,44.06
2018-08-06T07:41:38.639Z,42.82
2018-08-06T07:42:19.207Z,42.82
2018-08-06T07:42:59.806Z,43.7
2018-08-06T07:43:40.365Z,42.91
2018-08-06T07:44:20.946Z,43.6
2018-08-06T07:45:01.527Z,43.7
2018-08-06T07:45:42.102Z,43.89
2018-08-06T07:46:22.667Z,43.3
2018-08-06T07:47:03.250Z,42.94
2018-08-06T07:47:43.827Z,42.72
2018-08-06T07:48:24.410Z,42.45
2018-08-06T07:49:04.982Z,41.38
2018-08-06T07:49:45.561Z,41.65
2018-08-06T07:50:26.130Z,41.28
2018-08-06T07:51:06.704Z,41.96
2018-08-06T07:51:47.284Z,42.06
2018-08-06T07:52:27.851Z,42.94
2018-08-06T07:53:08.424Z,42.84
2018-08-06T07:53:49.007Z,42.35
2018-08-06T07:54:29.570Z,42.65
2018-08-06T07:55:10.140Z,42.55
2018-08-06T07:55:50.716Z,42.74
2018-08-06T07:56:31.331Z,42.45
2018-08-06T07:57:11.962Z,42.25
2018-08-06T07:57:52.516Z,42.94
2018-08-06T07:58:33.158Z,43.81
2018-08-06T07:59:13.726Z,43.62
2018-08-06T07:59:54.300Z,42.94
2018-08-06T08:00:34.868Z,42.94
2018-08-06T08:01:15.439Z,43.04
2018-08-06T08:01:56.020Z,43.7
2018-08-06T08:02:36.605Z,43.3
2018-08-06T08:03:17.188Z,43.81
2018-08-06T08:03:57.768Z,43.21
2018-08-06T08:04:38.494Z,43.33
2018-08-06T08:05:19.135Z,43.11
2018-08-06T08:05:59.715Z,41.65
2018-08-06T08:06:40.495Z,42.43
2018-08-06T08:07:21.082Z,43.01
2018-08-06T08:08:01.657Z,43.11
2018-08-06T08:08:42.267Z,43.79
2018-08-06T08:09:22.858Z,42.82
2018-08-06T08:10:03.422Z,40.09
2018-08-06T08:10:44.024Z,40.19
2018-08-06T08:11:24.586Z,40.08
2018-08-06T08:12:05.256Z,40.75
2018-08-06T08:12:45.723Z,41.05
2018-08-06T08:13:26.329Z,41.13
2018-08-06T08:14:06.923Z,41.71
2018-08-06T08:14:47.503Z,43.36
2018-08-06T08:15:28.075Z,43.65
2018-08-06T08:16:08.650Z,44.04
2018-08-06T08:16:49.238Z,44.62
2018-08-06T08:17:29.815Z,44.72
2018-08-06T08:18:10.385Z,44.53
2018-08-06T08:18:51.162Z,42.87
2018-08-06T08:19:31.569Z,44.04
2018-08-06T08:20:12.220Z,44.04
2018-08-06T08:20:52.657Z,44.33
2018-08-06T08:21:33.224Z,43.85
2018-08-06T08:22:13.798Z,42.11
2018-08-06T08:22:54.366Z,43.85
2018-08-06T08:23:35.085Z,44.43
2018-08-06T08:24:15.814Z,44.24
2018-08-06T08:24:56.413Z,44.92
2018-08-06T08:25:36.984Z,44.84
2018-08-06T08:26:17.570Z,44.94
2018-08-06T08:26:58.164Z,44.35
2018-08-06T08:27:38.728Z,44.94
2018-08-06T08:28:19.294Z,44.45
2018-08-06T08:28:59.871Z,44.16
2018-08-06T08:29:40.461Z,43.77
2018-08-06T08:30:21.058Z,44.26
2018-08-06T08:31:01.644Z,44.45
2018-08-06T08:31:42.210Z,43.87
2018-08-06T08:32:22.780Z,43.96
2018-08-06T08:33:03.328Z,43.96
2018-08-06T08:33:44.019Z,43.67
2018-08-06T08:34:24.614Z,43.79
2018-08-06T08:35:05.189Z,43.21
2018-08-06T08:35:46.526Z,43.58
2018-08-06T08:36:27.099Z,43.6
2018-08-06T08:37:07.668Z,43.3
2018-08-06T08:37:48.287Z,43.79
2018-08-06T08:38:29.253Z,43.79
2018-08-06T08:39:09.843Z,43.87
2018-08-06T08:39:50.542Z,43.89
2018-08-06T08:40:31.618Z,43.5
2018-08-06T08:41:12.295Z,43.3
2018-08-06T08:41:53.103Z,43.7
2018-08-06T08:42:33.851Z,44.18
2018-08-06T08:43:14.553Z,44.28
2018-08-06T08:43:55.420Z,44.76
2018-08-06T08:44:37.258Z,44.48